Time;durP1;ratioP1;P1;durP2;ratioP2;P2;SDS_P1;SDS_P2;PMS_P1;PMS_P2;Temp;Humidity;BMP_temperature;BMP_pressure;BME280_temperature;BME280_humidity;BME280_pressure;Samples;Min_cycle;Max_cycle;Signal;HPM_P1;HPM_P2
2022/06/26 00:02:21;;;;;;;6.50;5.10;;;19.30;99.90;;;;;;7349056;19;108319;-82
2022/06/26 00:04:48;;;;;;;7.93;5.97;;;19.30;99.90;;;;;;7348408;19;108899;-81
2022/06/26 00:07:16;;;;;;;8.40;6.30;;;19.30;99.90;;;;;;7347510;19;107989;-82
2022/06/26 00:09:43;;;;;;;7.90;6.82;;;19.30;99.90;;;;;;7348329;19;108623;-82
2022/06/26 00:12:11;;;;;;;8.30;6.38;;;19.30;99.90;;;;;;7345348;19;107952;-82
2022/06/26 00:14:38;;;;;;;8.20;7.00;;;19.30;99.90;;;;;;7345995;19;108431;-82
2022/06/26 00:17:05;;;;;;;8.30;6.97;;;19.30;99.90;;;;;;7349239;19;110915;-81
2022/06/26 00:19:33;;;;;;;8.73;7.55;;;19.30;99.90;;;;;;7354066;19;108858;-82
2022/06/26 00:22:05;;;;;;;11.30;7.68;;;19.30;99.90;;;;;;7348336;19;107268;-83
2022/06/26 00:24:33;;;;;;;9.07;8.18;;;19.30;99.90;;;;;;7344389;19;107551;-82
2022/06/26 00:27:02;;;;;;;11.38;8.57;;;19.20;99.90;;;;;;7347716;19;108332;-82
2022/06/26 00:29:30;;;;;;;9.00;7.72;;;19.20;99.90;;;;;;7348485;19;110031;-82
2022/06/26 00:31:57;;;;;;;9.85;8.15;;;19.20;99.90;;;;;;7347157;19;108976;-82
2022/06/26 00:34:25;;;;;;;9.75;8.10;;;19.20;99.90;;;;;;7346712;19;108011;-82
2022/06/26 00:36:52;;;;;;;11.85;7.28;;;19.20;99.90;;;;;;7342202;19;108246;-82
2022/06/26 00:39:19;;;;;;;16.48;7.85;;;19.20;99.90;;;;;;7346360;19;109022;-81
2022/06/26 00:41:46;;;;;;;8.70;6.97;;;19.10;99.90;;;;;;7351239;19;107922;-81
2022/06/26 00:44:15;;;;;;;9.57;7.18;;;19.10;99.90;;;;;;7346708;19;109216;-81
2022/06/26 00:46:43;;;;;;;10.40;6.75;;;19.20;99.90;;;;;;7347271;19;111134;-81
2022/06/26 00:49:10;;;;;;;10.27;7.07;;;19.10;99.90;;;;;;7346118;19;108194;-80
2022/06/26 00:51:42;;;;;;;9.07;7.00;;;19.10;99.90;;;;;;7347353;19;108891;-80
2022/06/26 00:54:09;;;;;;;8.98;6.40;;;19.10;99.90;;;;;;7345764;19;108452;-81
2022/06/26 00:56:37;;;;;;;8.18;6.10;;;19.10;99.90;;;;;;7344917;19;108467;-81
2022/06/26 00:59:04;;;;;;;9.23;5.90;;;19.10;99.90;;;;;;7346747;19;109218;-81
2022/06/26 01:01:34;;;;;;;8.35;5.90;;;19.10;99.90;;;;;;7350170;19;107854;-81
2022/06/26 01:04:03;;;;;;;8.60;6.15;;;19.00;99.90;;;;;;7345922;19;109139;-82
2022/06/26 01:06:31;;;;;;;7.05;5.57;;;19.00;99.90;;;;;;7345119;19;109934;-81
2022/06/26 01:08:58;;;;;;;8.43;5.75;;;19.00;99.90;;;;;;7346223;19;108149;-82
2022/06/26 01:11:26;;;;;;;9.80;5.07;;;19.00;99.90;;;;;;7345757;19;109532;-81
2022/06/26 01:13:55;;;;;;;9.38;5.60;;;19.00;99.90;;;;;;7345905;19;109084;-81
2022/06/26 01:16:24;;;;;;;8.75;5.32;;;18.90;99.90;;;;;;7345224;19;108220;-81
2022/06/26 01:18:55;;;;;;;10.32;5.40;;;18.90;99.90;;;;;;7345711;19;108667;-82
2022/06/26 01:21:23;;;;;;;10.18;5.10;;;18.90;99.90;;;;;;7346170;19;109414;-81
2022/06/26 01:23:51;;;;;;;10.95;5.68;;;18.80;99.90;;;;;;7350953;19;108062;-81
2022/06/26 01:26:19;;;;;;;9.23;5.40;;;18.80;99.90;;;;;;7342943;19;108391;-81
2022/06/26 01:28:47;;;;;;;8.32;5.30;;;18.80;99.90;;;;;;7344430;19;108238;-81
2022/06/26 01:31:14;;;;;;;6.93;5.28;;;18.70;99.90;;;;;;7345330;19;109246;-81
2022/06/26 01:33:41;;;;;;;10.38;5.25;;;18.70;99.90;;;;;;7345656;19;108090;-81
2022/06/26 01:36:09;;;;;;;7.47;4.75;;;18.70;99.90;;;;;;7339471;19;108590;-82
2022/06/26 01:38:36;;;;;;;9.80;5.03;;;18.70;99.90;;;;;;7344639;19;108850;-81
2022/06/26 01:41:03;;;;;;;10.25;4.78;;;18.60;99.90;;;;;;7345158;19;107594;-81
2022/06/26 01:43:33;;;;;;;10.25;5.30;;;18.60;99.90;;;;;;7344821;19;107542;-81
2022/06/26 01:46:01;;;;;;;7.40;5.00;;;18.60;99.90;;;;;;7347971;19;108133;-81
2022/06/26 01:48:30;;;;;;;9.05;4.68;;;18.60;99.90;;;;;;7345234;19;108488;-81
2022/06/26 01:50:58;;;;;;;9.68;5.05;;;18.60;99.90;;;;;;7344789;19;109172;-81
2022/06/26 01:53:27;;;;;;;9.82;5.68;;;18.60;99.90;;;;;;7344668;19;107242;-81
2022/06/26 01:55:54;;;;;;;10.07;5.38;;;18.50;99.90;;;;;;7342562;19;108911;-81
2022/06/26 01:58:22;;;;;;;6.78;4.80;;;18.50;99.90;;;;;;7343320;19;112178;-82
2022/06/26 02:00:50;;;;;;;11.50;5.68;;;18.50;99.90;;;;;;7343239;19;108198;-81
2022/06/26 02:03:18;;;;;;;10.23;6.13;;;18.50;99.90;;;;;;7345352;19;109926;-81
2022/06/26 02:05:45;;;;;;;9.80;5.47;;;18.40;99.90;;;;;;7346335;19;111447;-81
2022/06/26 02:08:12;;;;;;;12.18;4.85;;;18.40;99.90;;;;;;7348700;19;107182;-81
2022/06/26 02:13:39;;;;;;;6.97;4.85;;;18.40;99.90;;;;;;7343964;19;108132;-81
2022/06/26 02:16:22;;;;;;;12.50;5.47;;;18.30;99.90;;;;;;7339129;19;108697;-81
2022/06/26 02:18:55;;;;;;;14.38;4.63;;;18.30;99.90;;;;;;7343959;19;108863;-81
2022/06/26 02:21:25;;;;;;;9.52;5.35;;;18.30;99.90;;;;;;7343805;19;107367;-81
2022/06/26 02:23:52;;;;;;;9.50;5.65;;;18.20;99.90;;;;;;7344608;19;108570;-81
2022/06/26 02:26:21;;;;;;;9.30;5.72;;;18.30;99.90;;;;;;7344034;19;108477;-81
2022/06/26 02:28:48;;;;;;;12.75;5.53;;;18.20;99.90;;;;;;7343870;19;107732;-81
2022/06/26 02:31:16;;;;;;;12.18;5.38;;;18.10;99.90;;;;;;7349617;19;108208;-81
2022/06/26 02:33:43;;;;;;;14.90;5.60;;;18.10;99.90;;;;;;7344414;19;107954;-81
2022/06/26 02:36:10;;;;;;;11.60;5.47;;;18.10;99.90;;;;;;7340655;19;108296;-81
2022/06/26 02:38:38;;;;;;;11.70;5.47;;;18.10;99.90;;;;;;7342040;19;108476;-81
2022/06/26 02:41:05;;;;;;;13.93;5.63;;;18.00;99.90;;;;;;7341472;19;107847;-81
2022/06/26 02:43:34;;;;;;;11.60;5.40;;;18.00;99.90;;;;;;7342480;19;108507;-81
2022/06/26 02:46:01;;;;;;;14.52;5.85;;;18.00;99.90;;;;;;7341141;19;107805;-82
2022/06/26 02:48:28;;;;;;;11.10;5.65;;;18.00;99.90;;;;;;7345650;19;107977;-81
2022/06/26 02:50:55;;;;;;;15.18;6.22;;;17.90;99.90;;;;;;7350295;19;107727;-80
2022/06/26 02:53:22;;;;;;;12.98;6.45;;;17.90;99.90;;;;;;7354656;19;107811;-81
2022/06/26 02:55:50;;;;;;;14.38;6.75;;;17.80;99.90;;;;;;7347583;19;107235;-81
2022/06/26 02:58:17;;;;;;;12.27;6.72;;;17.80;99.90;;;;;;7349887;19;111538;-82
2022/06/26 03:00:44;;;;;;;13.32;7.38;;;17.80;99.90;;;;;;7346737;19;108560;-81
2022/06/26 03:03:11;;;;;;;14.98;6.93;;;17.70;99.90;;;;;;7348394;19;108305;-82
2022/06/26 03:05:38;;;;;;;16.85;7.97;;;17.70;99.90;;;;;;7349139;19;109219;-82
2022/06/26 03:08:06;;;;;;;12.13;6.75;;;17.70;99.90;;;;;;7349107;19;107978;-82
2022/06/26 03:10:33;;;;;;;19.30;7.00;;;17.70;99.90;;;;;;7349173;19;111125;-81
2022/06/26 03:13:00;;;;;;;13.80;7.68;;;17.70;99.90;;;;;;7354637;19;109285;-81
2022/06/26 03:15:27;;;;;;;16.10;7.97;;;17.70;99.90;;;;;;7346195;19;111341;-81
2022/06/26 03:17:54;;;;;;;21.65;8.02;;;17.70;99.90;;;;;;7349907;19;109508;-81
2022/06/26 03:20:21;;;;;;;14.55;7.60;;;17.60;99.90;;;;;;7349646;19;107926;-82
2022/06/26 03:22:50;;;;;;;16.38;7.90;;;17.50;99.90;;;;;;7348715;19;107727;-81
2022/06/26 03:25:17;;;;;;;21.05;8.38;;;17.50;99.90;;;;;;7348071;19;109399;-81
2022/06/26 03:27:44;;;;;;;16.25;8.63;;;17.50;99.90;;;;;;7348170;19;108153;-81
2022/06/26 03:30:12;;;;;;;19.02;8.02;;;17.50;99.90;;;;;;7348628;19;108671;-81
2022/06/26 03:32:40;;;;;;;13.45;7.78;;;17.50;99.90;;;;;;7349928;19;107666;-82
2022/06/26 03:35:08;;;;;;;16.13;8.07;;;17.40;99.90;;;;;;7352001;19;108103;-81
2022/06/26 03:37:35;;;;;;;19.80;9.05;;;17.40;99.90;;;;;;7349236;19;112393;-81
2022/06/26 03:40:03;;;;;;;16.48;7.95;;;17.40;99.90;;;;;;7348228;19;107764;-82
2022/06/26 03:42:30;;;;;;;19.00;8.40;;;17.40;99.90;;;;;;7347803;19;109000;-82
2022/06/26 03:44:57;;;;;;;15.80;8.60;;;17.40;99.90;;;;;;7346849;19;109162;-81
2022/06/26 03:47:24;;;;;;;18.73;7.75;;;17.40;99.90;;;;;;7347072;19;110474;-82
2022/06/26 03:49:53;;;;;;;16.67;8.48;;;17.40;99.90;;;;;;7346855;19;108309;-81
2022/06/26 03:52:24;;;;;;;16.75;8.82;;;17.50;99.90;;;;;;7346846;19;110121;-81
2022/06/26 03:54:51;;;;;;;13.27;7.90;;;17.50;99.90;;;;;;7348603;19;107418;-82
2022/06/26 03:57:19;;;;;;;22.45;8.55;;;17.50;99.90;;;;;;7351360;19;108596;-81
2022/06/26 03:59:50;;;;;;;19.27;8.77;;;17.40;99.90;;;;;;7344112;19;108110;-82
2022/06/26 04:02:17;;;;;;;25.27;8.60;;;17.50;99.90;;;;;;7347330;19;108309;-82
2022/06/26 04:04:45;;;;;;;19.95;8.90;;;17.50;99.90;;;;;;7345009;19;112972;-82
2022/06/26 04:07:12;;;;;;;19.40;8.70;;;17.40;99.90;;;;;;7347663;19;108238;-82
2022/06/26 04:09:40;;;;;;;21.92;9.60;;;17.40;99.90;;;;;;7348032;19;108400;-82
2022/06/26 04:12:07;;;;;;;17.10;8.43;;;17.40;99.90;;;;;;7346519;19;109359;-81
2022/06/26 04:14:35;;;;;;;21.13;9.18;;;17.30;99.90;;;;;;7348981;19;107767;-81
2022/06/26 04:17:02;;;;;;;18.50;8.77;;;17.40;99.90;;;;;;7343456;19;107835;-81
2022/06/26 04:19:29;;;;;;;20.02;8.93;;;17.30;99.90;;;;;;7351331;19;109110;-81
2022/06/26 04:21:56;;;;;;;22.23;8.80;;;17.40;99.90;;;;;;7346799;19;109348;-82
2022/06/26 04:24:24;;;;;;;17.15;8.35;;;17.40;99.90;;;;;;7348173;19;108767;-82
2022/06/26 04:26:51;;;;;;;21.92;8.95;;;17.40;99.90;;;;;;7346969;19;107808;-81
2022/06/26 04:29:18;;;;;;;17.10;7.75;;;17.40;99.90;;;;;;7347149;19;110398;-81
2022/06/26 04:31:45;;;;;;;19.33;7.80;;;17.40;99.90;;;;;;7346750;19;107623;-82
2022/06/26 04:34:13;;;;;;;24.40;7.70;;;17.40;99.90;;;;;;7346750;19;108587;-81
2022/06/26 04:36:40;;;;;;;28.80;7.55;;;17.40;99.90;;;;;;7341577;19;108598;-81
2022/06/26 04:39:07;;;;;;;16.30;7.05;;;17.40;99.90;;;;;;7346856;19;108961;-80
2022/06/26 04:41:38;;;;;;;12.77;6.72;;;17.40;99.90;;;;;;7352369;19;109743;-82
2022/06/26 04:44:12;;;;;;;14.82;6.88;;;17.40;99.90;;;;;;7343546;19;108273;-81
2022/06/26 04:46:41;;;;;;;14.40;6.70;;;17.40;99.90;;;;;;7346267;19;107966;-81
2022/06/26 04:49:08;;;;;;;10.52;6.30;;;17.40;99.90;;;;;;7346655;19;106961;-82
2022/06/26 04:51:36;;;;;;;11.98;6.03;;;17.40;99.90;;;;;;7346521;19;109042;-81
2022/06/26 04:54:04;;;;;;;12.77;5.72;;;17.50;99.90;;;;;;7346954;19;108236;-82
2022/06/26 04:56:31;;;;;;;12.98;5.85;;;17.40;99.90;;;;;;7342136;19;111557;-81
2022/06/26 04:58:59;;;;;;;9.27;5.50;;;17.40;99.90;;;;;;7343748;19;109387;-82
2022/06/26 05:01:27;;;;;;;13.23;5.85;;;17.50;99.90;;;;;;7343977;19;108344;-81
2022/06/26 05:03:55;;;;;;;10.30;6.10;;;17.50;99.90;;;;;;7352128;19;108672;-82
2022/06/26 05:06:22;;;;;;;10.13;5.43;;;17.50;99.90;;;;;;7346794;19;108285;-81
2022/06/26 05:08:50;;;;;;;11.85;5.65;;;17.60;99.90;;;;;;7344234;19;112232;-82
2022/06/26 05:11:18;;;;;;;11.82;6.10;;;17.60;99.90;;;;;;7345264;19;109879;-81
2022/06/26 05:13:46;;;;;;;7.55;5.30;;;17.70;99.90;;;;;;7344540;19;107621;-81
2022/06/26 05:16:13;;;;;;;9.13;5.35;;;17.70;99.90;;;;;;7342578;19;108142;-81
2022/06/26 05:18:40;;;;;;;11.95;5.60;;;17.90;99.90;;;;;;7344365;19;108254;-81
2022/06/26 05:21:07;;;;;;;12.50;5.75;;;17.90;99.90;;;;;;7345390;19;107912;-81
2022/06/26 05:23:34;;;;;;;9.32;5.05;;;18.00;99.90;;;;;;7348024;19;108658;-81
2022/06/26 05:26:02;;;;;;;11.88;5.35;;;18.00;99.90;;;;;;7344610;19;108047;-82
2022/06/26 05:28:29;;;;;;;8.63;5.10;;;18.10;99.90;;;;;;7342755;19;108235;-82
2022/06/26 05:30:56;;;;;;;10.27;5.10;;;18.20;99.90;;;;;;7346131;19;113114;-81
2022/06/26 05:33:23;;;;;;;10.43;4.60;;;18.20;99.90;;;;;;7345108;19;108281;-81
2022/06/26 05:35:50;;;;;;;8.25;5.30;;;18.30;99.90;;;;;;7343288;19;108428;-82
2022/06/26 05:38:17;;;;;;;10.18;4.90;;;18.30;99.90;;;;;;7344513;19;108186;-82
2022/06/26 05:40:44;;;;;;;9.38;4.47;;;18.30;99.90;;;;;;7343385;19;106996;-82
2022/06/26 05:43:11;;;;;;;10.63;4.60;;;18.30;99.90;;;;;;7344705;19;108511;-82
2022/06/26 05:45:38;;;;;;;7.75;5.13;;;18.30;99.90;;;;;;7348439;19;109233;-81
2022/06/26 05:48:06;;;;;;;11.52;5.05;;;18.40;99.90;;;;;;7343119;19;107962;-81
2022/06/26 05:50:33;;;;;;;8.95;4.75;;;18.40;99.90;;;;;;7344641;19;111661;-81
2022/06/26 05:53:00;;;;;;;10.65;4.72;;;18.40;99.90;;;;;;7343968;19;108016;-82
2022/06/26 05:55:28;;;;;;;5.72;4.45;;;18.40;99.90;;;;;;7343987;19;111723;-82
2022/06/26 05:57:55;;;;;;;7.93;4.35;;;18.50;99.90;;;;;;7345054;19;108903;-81
2022/06/26 06:00:22;;;;;;;9.45;4.40;;;18.50;99.90;;;;;;7341776;19;108880;-82
2022/06/26 06:02:49;;;;;;;8.93;4.45;;;18.50;99.90;;;;;;7344252;19;109115;-81
2022/06/26 06:05:17;;;;;;;8.27;4.38;;;18.60;99.90;;;;;;7343957;19;108966;-81
2022/06/26 06:07:44;;;;;;;10.43;4.63;;;18.60;99.90;;;;;;7349199;19;108508;-81
2022/06/26 06:10:11;;;;;;;7.15;4.22;;;18.70;99.90;;;;;;7344051;19;109239;-82
2022/06/26 06:12:38;;;;;;;8.85;4.03;;;18.70;99.90;;;;;;7343306;19;107913;-80
2022/06/26 06:15:06;;;;;;;9.35;4.10;;;18.70;99.90;;;;;;7341955;19;111715;-81
2022/06/26 06:17:36;;;;;;;6.53;4.10;;;18.70;99.90;;;;;;7339185;19;110163;-81
2022/06/26 06:20:13;;;;;;;6.50;3.97;;;18.80;99.90;;;;;;7341929;19;109092;-81
2022/06/26 06:22:43;;;;;;;11.27;3.60;;;18.80;99.90;;;;;;7341450;19;108694;-81
2022/06/26 06:25:10;;;;;;;8.85;4.40;;;18.80;99.90;;;;;;7343751;19;112345;-81
2022/06/26 06:27:43;;;;;;;8.18;4.05;;;18.90;99.90;;;;;;7344161;19;109171;-81
2022/06/26 06:30:11;;;;;;;8.43;3.95;;;18.90;99.90;;;;;;7347730;19;108328;-81
2022/06/26 06:32:40;;;;;;;8.27;3.63;;;18.90;99.90;;;;;;7342281;19;111476;-81
2022/06/26 06:35:09;;;;;;;8.00;4.10;;;18.90;99.90;;;;;;7342281;19;108525;-81
2022/06/26 06:37:36;;;;;;;7.50;4.10;;;18.90;99.90;;;;;;7339965;19;108886;-81
2022/06/26 06:40:04;;;;;;;9.80;4.20;;;18.90;99.90;;;;;;7341885;19;107547;-81
2022/06/26 06:42:31;;;;;;;5.75;3.90;;;18.90;99.90;;;;;;7341210;19;110788;-81
2022/06/26 06:44:58;;;;;;;11.02;4.25;;;18.90;99.90;;;;;;7341747;19;109738;-81
2022/06/26 06:47:25;;;;;;;4.63;3.90;;;19.00;99.90;;;;;;7341726;19;108139;-81
2022/06/26 06:49:52;;;;;;;7.85;3.90;;;19.00;99.90;;;;;;7341924;19;108972;-81
2022/06/26 06:52:19;;;;;;;8.15;4.00;;;19.00;99.90;;;;;;7348127;19;108878;-81
2022/06/26 06:54:46;;;;;;;4.70;3.55;;;19.00;99.90;;;;;;7342335;19;107977;-81
2022/06/26 06:57:13;;;;;;;7.15;4.13;;;19.10;99.90;;;;;;7340780;19;108947;-81
2022/06/26 06:59:40;;;;;;;6.50;4.03;;;19.10;99.90;;;;;;7342703;19;111435;-81
2022/06/26 07:02:08;;;;;;;8.63;4.07;;;19.10;99.90;;;;;;7343141;19;108834;-81
2022/06/26 07:04:35;;;;;;;8.32;4.25;;;19.10;99.90;;;;;;7341958;19;108739;-81
2022/06/26 07:07:04;;;;;;;10.63;4.30;;;19.10;99.90;;;;;;7340744;19;108634;-81
2022/06/26 07:09:31;;;;;;;8.15;3.80;;;19.20;99.90;;;;;;7342023;19;108649;-81
2022/06/26 07:11:58;;;;;;;8.82;4.20;;;19.20;99.90;;;;;;7341768;19;109266;-82
2022/06/26 07:14:26;;;;;;;9.27;4.00;;;19.20;99.90;;;;;;7345250;19;107579;-81
2022/06/26 07:16:53;;;;;;;8.60;4.05;;;19.30;99.90;;;;;;7339954;19;111941;-81
2022/06/26 07:19:20;;;;;;;10.68;4.25;;;19.30;99.90;;;;;;7338862;19;108089;-81
2022/06/26 07:21:47;;;;;;;7.40;3.75;;;19.40;99.90;;;;;;7341700;19;107939;-81
2022/06/26 07:24:15;;;;;;;6.53;4.13;;;19.40;99.90;;;;;;7342194;19;109803;-81
2022/06/26 07:26:42;;;;;;;10.27;3.90;;;19.40;99.90;;;;;;7340859;19;107144;-82
2022/06/26 07:29:10;;;;;;;4.95;3.58;;;19.40;99.90;;;;;;7341992;19;107588;-82
2022/06/26 07:31:37;;;;;;;9.15;3.78;;;19.40;99.90;;;;;;7339327;19;109228;-83
2022/06/26 07:34:13;;;;;;;6.93;3.75;;;19.40;99.90;;;;;;7347765;19;107926;-83
2022/06/26 07:36:41;;;;;;;6.05;3.80;;;19.40;99.90;;;;;;7345923;19;109307;-82
2022/06/26 07:39:13;;;;;;;8.63;3.78;;;19.50;99.90;;;;;;7347410;19;107996;-82
2022/06/26 07:41:42;;;;;;;8.20;3.80;;;19.60;99.90;;;;;;7345882;19;111193;-82
2022/06/26 07:44:09;;;;;;;7.68;3.75;;;19.60;99.90;;;;;;7348232;19;108737;-82
2022/06/26 07:46:36;;;;;;;6.13;3.70;;;19.60;99.90;;;;;;7346859;19;108021;-82
2022/06/26 07:49:06;;;;;;;8.27;3.72;;;19.60;99.90;;;;;;7347715;19;111036;-82
2022/06/26 07:51:34;;;;;;;6.60;3.22;;;19.70;99.90;;;;;;7347713;19;108682;-83
2022/06/26 07:54:01;;;;;;;13.05;3.33;;;19.70;99.90;;;;;;7348448;19;108491;-83
2022/06/26 07:56:28;;;;;;;6.10;3.58;;;19.70;99.90;;;;;;7352278;19;111762;-82
2022/06/26 07:58:57;;;;;;;6.55;2.97;;;19.80;99.90;;;;;;7344996;19;108666;-83
2022/06/26 08:01:24;;;;;;;10.98;3.50;;;19.80;99.90;;;;;;7344933;19;107470;-83
2022/06/26 08:03:52;;;;;;;6.75;3.38;;;19.80;99.90;;;;;;7347160;19;108163;-83
2022/06/26 08:06:19;;;;;;;6.50;3.17;;;19.90;99.90;;;;;;7347845;19;108006;-83
2022/06/26 08:08:47;;;;;;;9.05;3.22;;;19.90;99.90;;;;;;7346017;19;108302;-82
2022/06/26 08:11:14;;;;;;;9.02;3.35;;;20.00;99.90;;;;;;7343707;19;109214;-84
2022/06/26 08:13:41;;;;;;;8.73;3.45;;;20.00;99.90;;;;;;7347278;19;107645;-83
2022/06/26 08:16:08;;;;;;;8.95;3.80;;;19.90;99.90;;;;;;7346027;19;108725;-83
2022/06/26 08:18:36;;;;;;;8.27;3.67;;;19.80;99.90;;;;;;7348127;19;109228;-83
2022/06/26 08:23:49;;;;;;;6.72;3.13;;;20.00;99.90;;;;;;7346478;19;109804;-82
2022/06/26 08:26:17;;;;;;;10.35;3.50;;;20.10;99.90;;;;;;7346113;19;107248;-83
2022/06/26 08:28:44;;;;;;;5.63;3.30;;;20.20;99.90;;;;;;7345779;19;108126;-83
2022/06/26 08:31:11;;;;;;;13.35;3.70;;;20.30;99.90;;;;;;7344765;19;108948;-83
2022/06/26 08:33:39;;;;;;;12.43;3.78;;;20.30;99.90;;;;;;7346303;19;108779;-83
2022/06/26 08:36:06;;;;;;;8.07;3.75;;;20.30;99.90;;;;;;7340475;19;107403;-83
2022/06/26 08:38:33;;;;;;;9.95;3.83;;;20.30;99.90;;;;;;7343128;19;108377;-83
2022/06/26 08:41:01;;;;;;;7.07;3.72;;;20.30;99.90;;;;;;7348974;19;108076;-83
2022/06/26 08:43:29;;;;;;;5.43;3.58;;;20.20;99.90;;;;;;7344909;19;108890;-82
2022/06/26 08:46:04;;;;;;;5.05;2.88;;;20.20;99.90;;;;;;7344752;19;108809;-83
2022/06/26 08:48:42;;;;;;;7.15;3.47;;;20.30;99.90;;;;;;7344948;19;107662;-82
2022/06/26 08:51:10;;;;;;;8.20;3.53;;;20.40;99.90;;;;;;7343851;19;109086;-83
2022/06/26 08:53:38;;;;;;;7.82;3.50;;;20.50;99.90;;;;;;7343023;19;108175;-83
2022/06/26 08:56:06;;;;;;;7.72;4.00;;;20.60;99.90;;;;;;7346053;19;108632;-83
2022/06/26 08:58:33;;;;;;;6.70;3.63;;;20.50;99.90;;;;;;7341913;19;108379;-83
2022/06/26 09:01:00;;;;;;;7.15;3.60;;;20.50;99.90;;;;;;7343253;19;108000;-83
2022/06/26 09:03:28;;;;;;;10.57;4.25;;;20.60;99.90;;;;;;7350939;19;107901;-83
2022/06/26 09:05:55;;;;;;;6.68;3.28;;;20.60;99.90;;;;;;7346544;19;107731;-84
2022/06/26 09:08:25;;;;;;;9.13;3.80;;;20.60;99.90;;;;;;7346060;19;108614;-84
2022/06/26 09:10:52;;;;;;;6.97;3.85;;;20.60;99.90;;;;;;7344775;19;109257;-84
2022/06/26 09:13:19;;;;;;;6.95;3.80;;;20.70;99.90;;;;;;7343787;19;109681;-83
2022/06/26 09:15:50;;;;;;;6.30;3.47;;;20.80;99.90;;;;;;7343021;19;107906;-83
2022/06/26 09:18:17;;;;;;;7.13;3.13;;;20.90;99.90;;;;;;7343993;19;108673;-84
2022/06/26 09:20:55;;;;;;;8.73;3.70;;;21.00;99.90;;;;;;7343884;19;108387;-83
2022/06/26 09:23:22;;;;;;;9.55;3.67;;;21.10;99.90;;;;;;7348036;19;108186;-83
2022/06/26 09:25:56;;;;;;;5.65;3.30;;;21.10;99.90;;;;;;7341262;19;110515;-83
2022/06/26 09:28:24;;;;;;;6.47;3.35;;;21.20;99.90;;;;;;7343817;19;108608;-84
2022/06/26 09:31:02;;;;;;;5.30;3.63;;;21.20;99.90;;;;;;7345300;19;109507;-83
2022/06/26 09:33:33;;;;;;;5.78;3.38;;;21.20;99.90;;;;;;7341509;19;109098;-83
2022/06/26 09:36:03;;;;;;;5.68;3.15;;;21.30;99.90;;;;;;7342173;19;110168;-83
2022/06/26 09:38:36;;;;;;;8.63;3.65;;;21.40;99.90;;;;;;7342500;19;108884;-83
2022/06/26 09:41:06;;;;;;;7.45;3.15;;;21.40;99.90;;;;;;7343366;19;111781;-83
2022/06/26 09:43:38;;;;;;;6.32;2.95;;;21.50;99.90;;;;;;7342562;19;110131;-84
2022/06/26 09:46:16;;;;;;;7.25;3.40;;;21.60;99.90;;;;;;7346899;19;108953;-84
2022/06/26 09:48:43;;;;;;;8.98;3.00;;;21.70;99.90;;;;;;7343141;19;109597;-82
2022/06/26 09:51:12;;;;;;;9.30;2.92;;;21.60;99.90;;;;;;7342377;19;108543;-82
2022/06/26 09:53:41;;;;;;;6.93;2.83;;;21.70;99.90;;;;;;7342632;19;107959;-83
2022/06/26 09:56:09;;;;;;;6.13;2.78;;;21.70;99.90;;;;;;7341118;19;107454;-82
2022/06/26 09:58:36;;;;;;;4.90;2.95;;;21.80;99.90;;;;;;7335442;19;108268;-83
2022/06/26 10:06:36;;;;;;;9.02;2.70;;;22.00;99.90;;;;;;7343860;19;109244;-83
2022/06/26 10:09:08;;;;;;;10.90;3.13;;;22.20;99.90;;;;;;7349734;19;108047;-82
2022/06/26 10:11:42;;;;;;;8.30;3.13;;;22.40;99.90;;;;;;7343646;19;109781;-83
2022/06/26 10:14:23;;;;;;;5.03;2.53;;;22.30;99.90;;;;;;7342150;19;107221;-83
2022/06/26 10:17:02;;;;;;;5.70;2.47;;;22.10;99.90;;;;;;7342283;19;108518;-82
2022/06/26 10:19:51;;;;;;;10.55;2.55;;;22.20;99.90;;;;;;7342197;19;109001;-82
2022/06/26 10:22:19;;;;;;;9.35;2.13;;;22.50;99.90;;;;;;7343293;19;107731;-83
2022/06/26 10:24:52;;;;;;;5.32;2.25;;;22.60;99.90;;;;;;7343184;19;108410;-82
2022/06/26 10:27:30;;;;;;;8.05;2.72;;;22.70;99.90;;;;;;7341499;19;107891;-82
2022/06/26 10:30:09;;;;;;;8.85;2.58;;;22.80;99.90;;;;;;7342149;19;107578;-83
2022/06/26 10:32:36;;;;;;;8.13;2.83;;;22.70;99.90;;;;;;7348660;19;108518;-82
2022/06/26 10:35:05;;;;;;;6.55;2.35;;;22.60;99.90;;;;;;7339632;19;108201;-83
2022/06/26 10:37:47;;;;;;;7.38;2.13;;;22.70;99.90;;;;;;7341529;19;108563;-82
2022/06/26 10:43:08;;;;;;;7.75;2.10;;;22.90;99.90;;;;;;7340904;19;108284;-83
2022/06/26 10:45:38;;;;;;;10.68;2.28;;;22.80;99.90;;;;;;7341150;19;108809;-83
2022/06/26 10:48:23;;;;;;;7.05;1.85;;;22.90;99.90;;;;;;7340896;19;109251;-83
2022/06/26 10:51:01;;;;;;;4.55;1.85;;;23.20;99.90;;;;;;7342672;19;107981;-83
2022/06/26 10:53:41;;;;;;;6.43;1.90;;;23.30;99.90;;;;;;7340840;19;108914;-85
2022/06/26 10:56:08;;;;;;;5.25;1.75;;;23.50;99.90;;;;;;7347923;19;108400;-84
2022/06/26 10:58:48;;;;;;;7.93;2.10;;;23.70;99.90;;;;;;7340945;19;108034;-84
2022/06/26 11:01:20;;;;;;;6.28;1.60;;;23.70;99.90;;;;;;7338767;19;108684;-85
2022/06/26 11:03:47;;;;;;;8.50;2.10;;;23.70;99.90;;;;;;7341049;19;107554;-84
2022/06/26 11:06:15;;;;;;;4.95;1.50;;;23.60;99.90;;;;;;7342038;19;111353;-85
2022/06/26 11:08:50;;;;;;;6.13;1.70;;;23.70;99.90;;;;;;7340706;19;109251;-84
2022/06/26 11:11:20;;;;;;;4.35;1.67;;;23.90;99.90;;;;;;7348186;19;108574;-85
2022/06/26 11:13:55;;;;;;;5.78;1.60;;;23.90;99.90;;;;;;7344095;19;108563;-84
2022/06/26 11:16:31;;;;;;;6.30;1.30;;;24.10;99.90;;;;;;7348219;19;109275;-85
2022/06/26 11:19:01;;;;;;;3.97;1.65;;;24.20;99.90;;;;;;7351047;19;108833;-83
2022/06/26 11:21:28;;;;;;;5.10;1.70;;;24.20;99.90;;;;;;7346330;19;109001;-84
2022/06/26 11:23:56;;;;;;;6.80;1.60;;;24.30;99.90;;;;;;7348503;19;108310;-85
2022/06/26 11:26:23;;;;;;;4.30;1.38;;;24.50;99.90;;;;;;7346611;19;107432;-84
2022/06/26 11:29:02;;;;;;;6.45;1.50;;;24.70;99.90;;;;;;7349238;19;109470;-84
2022/06/26 11:31:32;;;;;;;5.35;1.65;;;24.80;99.90;;;;;;7345421;19;108281;-84
2022/06/26 11:34:12;;;;;;;6.40;1.63;;;24.70;99.90;;;;;;7347762;19;109497;-83
2022/06/26 11:36:53;;;;;;;5.45;1.60;;;24.50;99.90;;;;;;7345308;19;112118;-84
2022/06/26 11:39:45;;;;;;;7.53;1.23;;;24.30;99.90;;;;;;7349258;19;108139;-84
2022/06/26 11:42:17;;;;;;;6.20;1.50;;;24.20;99.90;;;;;;7344942;19;109124;-84
2022/06/26 11:44:52;;;;;;;6.28;1.58;;;24.20;99.90;;;;;;7347203;19;108018;-84
2022/06/26 11:47:21;;;;;;;8.55;1.70;;;24.40;99.90;;;;;;7347288;19;108798;-84
2022/06/26 11:49:49;;;;;;;5.97;1.83;;;24.30;99.90;;;;;;7347062;19;111277;-84
2022/06/26 11:52:16;;;;;;;6.18;1.67;;;24.40;99.90;;;;;;7343267;19;108213;-84
2022/06/26 11:54:44;;;;;;;5.68;1.33;;;24.50;99.90;;;;;;7347393;19;108333;-84
2022/06/26 11:57:12;;;;;;;4.82;1.50;;;24.70;99.90;;;;;;7344737;19;108578;-84
2022/06/26 11:59:44;;;;;;;11.75;1.70;;;24.80;99.90;;;;;;7344977;19;108294;-83
2022/06/26 12:02:20;;;;;;;9.75;1.65;;;24.70;99.40;;;;;;7350551;19;108357;-84
2022/06/26 12:05:01;;;;;;;5.82;1.38;;;24.70;99.50;;;;;;7345531;19;107457;-83
2022/06/26 12:07:42;;;;;;;6.10;1.60;;;24.70;99.70;;;;;;7347342;19;108494;-84
2022/06/26 12:10:10;;;;;;;5.00;1.25;;;24.70;99.50;;;;;;7347406;19;112301;-85
2022/06/26 12:12:48;;;;;;;4.30;1.15;;;24.50;99.00;;;;;;7345784;19;112258;-84
2022/06/26 12:15:15;;;;;;;5.18;1.50;;;24.40;98.90;;;;;;7346440;19;107642;-84
2022/06/26 12:17:51;;;;;;;6.38;1.70;;;24.40;99.20;;;;;;7345725;19;108727;-84
2022/06/26 12:20:19;;;;;;;4.33;1.60;;;24.30;99.40;;;;;;7345408;19;107976;-85
2022/06/26 12:22:51;;;;;;;5.03;1.63;;;24.30;99.90;;;;;;7344748;19;108227;-83
2022/06/26 12:25:30;;;;;;;6.63;1.42;;;24.50;99.90;;;;;;7350325;19;109051;-84
2022/06/26 12:27:59;;;;;;;6.93;1.60;;;24.70;99.70;;;;;;7345429;19;107326;-84
2022/06/26 12:30:33;;;;;;;3.78;1.42;;;24.80;99.60;;;;;;7345869;19;109626;-84
2022/06/26 12:33:04;;;;;;;8.05;1.65;;;24.80;99.10;;;;;;7344278;19;108256;-84
2022/06/26 12:35:32;;;;;;;6.85;1.77;;;24.70;99.00;;;;;;7344800;19;109991;-85
2022/06/26 12:38:01;;;;;;;7.18;1.48;;;24.80;99.40;;;;;;7343468;19;107927;-84
2022/06/26 12:40:28;;;;;;;5.55;1.60;;;25.00;99.30;;;;;;7345056;19;108228;-85
2022/06/26 12:42:56;;;;;;;5.22;1.42;;;25.10;98.90;;;;;;7346050;19;108420;-85
2022/06/26 12:45:23;;;;;;;4.18;1.55;;;25.10;98.30;;;;;;7342875;19;109156;-86
2022/06/26 12:47:50;;;;;;;5.35;1.42;;;25.00;97.70;;;;;;7351745;19;108333;-85
2022/06/26 12:50:18;;;;;;;4.13;1.25;;;24.90;97.40;;;;;;7344318;19;108805;-85
2022/06/26 12:52:45;;;;;;;3.05;1.48;;;24.90;98.40;;;;;;7345141;19;107573;-85
2022/06/26 12:55:12;;;;;;;5.88;1.40;;;25.10;97.90;;;;;;7345072;19;110922;-84
2022/06/26 12:57:39;;;;;;;8.30;1.67;;;25.20;97.80;;;;;;7345319;19;108890;-85